首页
METAR-TAF:

METAR-TAF

机场 :

尤馬, 亞利桑那州, 美国

纬度: 32-37-25N, 经度: 113-45-50W, 海拔: 64米

当前天气观测

该预报发布于34分钟前的13:57 UTC
风速8节,风向
温度 16°C
湿度 42%
气压 1014 hPa
能見度: 11.3公里
天空无云

METAR: KNYL 131357Z COR 01008KT 7SM CLR 16/03 A2995 RMK AO2 FIRST SLP138 T01610033

时间: 07:31 (14:31 UTC)


TAF: 丢失

超过4000个机场的气象观测和天气预报(METAR&TAF报告)。

可查询的气象台以黄色和红色小点在地图上表示。

将鼠标移到小点上方,可查看气象台名称。

然后点击查看天气观测和预报。

如需切换地图:点击带黑十字的绿色按钮放大地图;点击带横线的绿色按钮缩小地图;或者点击绿色箭头查看邻近地区的地图。


METAR-TAF: